Time;durP1;ratioP1;P1;durP2;ratioP2;P2;SDS_P1;SDS_P2;PMS_P1;PMS_P2;Temp;Humidity;BMP_temperature;BMP_pressure;BME280_temperature;BME280_humidity;BME280_pressure;Samples;Min_cycle;Max_cycle;Signal;HPM_P1;HPM_P2
2022/10/14 00:02:22;;;;;;;7.85;5.20;;;;;;;14.33;68.86;101458.75;5089374;28;20049;-63
2022/10/14 00:04:50;;;;;;;6.53;4.57;;;;;;;14.34;69.03;101462.28;5083349;28;20075;-63
2022/10/14 00:07:18;;;;;;;7.32;4.78;;;;;;;14.34;68.79;101454.19;5082886;28;20049;-63
2022/10/14 00:09:47;;;;;;;9.65;5.43;;;;;;;14.34;68.58;101460.41;5084220;28;20047;-64
2022/10/14 00:12:15;;;;;;;10.85;5.25;;;;;;;14.34;69.07;101460.41;5084595;28;20048;-63
2022/10/14 00:14:42;;;;;;;8.30;4.75;;;;;;;14.33;69.03;101453.34;5078178;28;20044;-63
2022/10/14 00:17:10;;;;;;;11.02;4.72;;;;;;;14.33;68.75;101460.66;5081101;28;20054;-63
2022/10/14 00:19:39;;;;;;;7.65;4.57;;;;;;;14.34;69.08;101462.28;5083752;28;20049;-63
2022/10/14 00:22:07;;;;;;;6.70;5.18;;;;;;;14.34;68.90;101462.28;5084287;28;20056;-63
2022/10/14 00:24:35;;;;;;;7.43;4.88;;;;;;;14.33;69.21;101460.66;5085051;28;20075;-62
2022/10/14 00:27:02;;;;;;;7.45;5.03;;;;;;;14.33;68.99;101453.34;5090620;28;20049;-63
2022/10/14 00:29:30;;;;;;;8.07;5.00;;;;;;;14.34;68.90;101459.59;5082762;28;20053;-64
2022/10/14 00:31:58;;;;;;;6.15;4.43;;;;;;;14.34;69.22;101456.88;5090337;28;20047;-64
2022/10/14 00:34:26;;;;;;;6.75;5.10;;;;;;;14.33;69.67;101457.94;5083341;28;20054;-64
2022/10/14 00:36:58;;;;;;;8.50;4.55;;;;;;;14.33;69.51;101450.66;5077272;28;20059;-64
2022/10/14 00:39:26;;;;;;;9.35;5.28;;;;;;;14.32;69.04;101445.47;5085906;28;20051;-64
2022/10/14 00:41:54;;;;;;;8.13;4.57;;;;;;;14.32;69.24;101446.31;5086303;28;20074;-64
2022/10/14 00:44:59;;;;;;;8.38;4.97;;;;;;;14.32;69.31;101440.88;5079609;28;20074;-64
2022/10/14 00:47:27;;;;;;;7.63;5.20;;;;;;;14.32;69.37;101434.66;5084117;28;20116;-63
2022/10/14 00:49:56;;;;;;;7.93;4.63;;;;;;;14.31;69.44;101431.13;5086374;28;20045;-63
2022/10/14 00:52:26;;;;;;;9.68;5.00;;;;;;;14.32;69.31;101440.06;5081493;28;20412;-63
2022/10/14 00:54:58;;;;;;;8.68;5.45;;;;;;;14.32;69.33;101432.78;5082928;28;20114;-64
2022/10/14 00:57:27;;;;;;;9.63;5.65;;;;;;;14.31;69.21;101424.91;5084133;28;20524;-64
2022/10/14 01:00:01;;;;;;;9.88;5.07;;;;;;;14.30;69.17;101424.06;5089690;28;20049;-64
2022/10/14 01:02:29;;;;;;;7.03;4.70;;;;;;;14.30;69.15;101420.56;5082966;28;20045;-64
2022/10/14 01:04:58;;;;;;;9.93;5.05;;;;;;;14.30;69.40;101420.56;5085884;28;20059;-65
2022/10/14 01:07:39;;;;;;;8.65;4.80;;;;;;;14.29;69.13;101419.72;5075340;28;20064;-65
2022/10/14 01:10:12;;;;;;;7.43;4.65;;;;;;;14.28;69.32;101415.38;5084390;28;20047;-64
2022/10/14 01:12:53;;;;;;;7.85;4.57;;;;;;;14.29;69.32;101419.72;5090907;28;20052;-64
2022/10/14 01:15:33;;;;;;;9.07;4.95;;;;;;;14.28;69.29;101414.56;5080864;28;20052;-65
2022/10/14 01:18:15;;;;;;;6.97;4.65;;;;;;;14.28;69.26;101412.66;5081716;28;20044;-64
2022/10/14 01:21:11;;;;;;;7.18;4.75;;;;;;;14.28;69.07;101412.66;5090442;28;20036;-64
2022/10/14 01:24:15;;;;;;;7.75;5.25;;;;;;;14.28;69.41;101406.44;5076518;28;20052;-64
2022/10/14 01:26:56;;;;;;;7.03;4.88;;;;;;;14.28;69.02;101403.72;5087748;28;20051;-64
2022/10/14 01:29:57;;;;;;;12.95;5.25;;;;;;;14.27;69.29;101392.09;5089767;28;20049;-64
2022/10/14 01:32:29;;;;;;;7.93;4.88;;;;;;;14.26;69.37;101387.75;5069080;28;20040;-64
2022/10/14 01:35:03;;;;;;;6.45;4.22;;;;;;;14.26;69.15;101384.22;5079245;28;20478;-63
2022/10/14 01:37:36;;;;;;;8.90;5.15;;;;;;;14.27;69.31;101375.88;5088016;28;20058;-63
2022/10/14 01:40:11;;;;;;;8.45;5.13;;;;;;;14.27;69.17;101372.34;5077111;28;20051;-63
2022/10/14 01:42:41;;;;;;;7.47;4.47;;;;;;;14.27;68.88;101369.66;5078525;28;20044;-64
2022/10/14 01:45:15;;;;;;;7.13;5.35;;;;;;;14.27;69.17;101367.75;5083136;28;20044;-64
2022/10/14 01:47:48;;;;;;;7.72;4.75;;;;;;;14.26;69.04;101363.41;5079652;28;20041;-64
2022/10/14 01:50:18;;;;;;;8.02;4.85;;;;;;;14.27;69.18;101361.53;5082928;28;20063;-64
2022/10/14 01:52:51;;;;;;;7.65;4.68;;;;;;;14.27;69.20;101356.94;5077937;28;20052;-64
2022/10/14 01:55:23;;;;;;;9.13;5.07;;;;;;;14.26;68.83;101344.50;5083165;28;20063;-63
2022/10/14 01:57:55;;;;;;;6.88;4.57;;;;;;;14.26;68.89;101354.47;5089414;28;20425;-65
2022/10/14 02:00:23;;;;;;;8.38;5.15;;;;;;;14.27;68.81;101356.13;5080008;28;20051;-64
2022/10/14 02:02:52;;;;;;;10.55;4.75;;;;;;;14.27;69.31;101356.13;5076134;28;20053;-64
2022/10/14 02:05:25;;;;;;;7.70;4.80;;;;;;;14.27;68.95;101358.81;5084258;28;20048;-64
2022/10/14 02:07:58;;;;;;;7.35;4.95;;;;;;;14.27;68.94;101362.34;5084319;28;20052;-64
2022/10/14 02:10:37;;;;;;;6.22;4.50;;;;;;;14.26;69.11;101359.88;5084762;28;20056;-64
2022/10/14 02:13:18;;;;;;;6.22;4.50;;;;;;;14.26;68.85;101358.00;5077442;28;20059;-64
2022/10/14 02:16:05;;;;;;;7.38;5.68;;;;;;;14.26;69.03;101343.66;5083983;28;20059;-64
2022/10/14 02:18:42;;;;;;;8.65;5.50;;;;;;;14.26;68.78;101343.66;5077392;28;20055;-64
2022/10/14 02:21:20;;;;;;;7.88;4.78;;;;;;;14.25;69.09;101344.72;5075631;28;20556;-63
2022/10/14 02:23:53;;;;;;;9.30;4.93;;;;;;;14.25;68.97;101342.84;5077024;28;20051;-64
2022/10/14 02:26:24;;;;;;;7.40;4.38;;;;;;;14.25;68.88;101348.25;5084202;28;20070;-64
2022/10/14 02:28:55;;;;;;;6.95;5.00;;;;;;;14.25;69.03;101342.00;5082290;28;20044;-64
2022/10/14 02:31:25;;;;;;;7.70;4.55;;;;;;;14.25;68.96;101334.72;5078102;28;20045;-64
2022/10/14 02:33:59;;;;;;;9.20;5.35;;;;;;;14.26;69.15;101330.16;5082783;28;20049;-64
2022/10/14 02:36:28;;;;;;;7.15;3.78;;;;;;;14.25;68.91;101334.72;5077897;28;20041;-64
2022/10/14 02:38:59;;;;;;;7.50;4.25;;;;;;;14.24;68.96;101333.09;5092409;28;20048;-63
2022/10/14 02:41:33;;;;;;;8.60;5.47;;;;;;;14.24;68.95;101326.84;5093619;28;20049;-64
2022/10/14 02:44:01;;;;;;;7.18;5.05;;;;;;;14.23;69.06;101336.03;5085760;28;20055;-64
2022/10/14 02:46:28;;;;;;;7.22;4.53;;;;;;;14.25;68.85;101336.59;5085185;28;20052;-64
2022/10/14 02:48:58;;;;;;;8.23;4.78;;;;;;;14.23;68.94;101326.03;5080117;28;20048;-63
2022/10/14 02:51:25;;;;;;;9.38;4.47;;;;;;;14.23;68.75;101331.44;5097190;28;20059;-64
2022/10/14 02:53:55;;;;;;;6.95;4.70;;;;;;;14.24;68.81;101326.84;5088202;28;20052;-64
2022/10/14 02:56:23;;;;;;;7.60;4.57;;;;;;;14.16;68.85;101308.28;5090252;28;20044;-64
2022/10/14 02:58:50;;;;;;;6.80;4.68;;;;;;;14.23;69.07;101323.31;5075778;28;20047;-63
2022/10/14 03:01:18;;;;;;;6.95;4.32;;;;;;;14.16;68.72;101302.88;5093210;28;20055;-64
2022/10/14 03:03:46;;;;;;;6.70;4.60;;;;;;;14.24;68.75;101313.34;5088933;28;20048;-63
2022/10/14 03:06:15;;;;;;;11.52;5.03;;;;;;;14.23;68.74;101317.09;5093660;28;20056;-63
2022/10/14 03:08:43;;;;;;;6.32;4.00;;;;;;;14.23;68.95;101308.97;5082557;28;20108;-64
2022/10/14 03:11:11;;;;;;;6.55;4.50;;;;;;;14.21;68.79;101303.00;5082484;28;20469;-64
2022/10/14 03:13:39;;;;;;;6.15;3.83;;;;;;;14.22;68.88;101299.22;5088374;28;20051;-63
2022/10/14 03:16:07;;;;;;;7.47;4.22;;;;;;;14.21;69.03;101298.41;5097283;28;20059;-64
2022/10/14 03:18:35;;;;;;;8.57;4.60;;;;;;;14.22;69.04;101297.34;5090219;28;20052;-64
2022/10/14 03:21:03;;;;;;;7.65;4.10;;;;;;;14.22;68.73;101296.53;5088426;28;20084;-63
2022/10/14 03:23:32;;;;;;;7.03;4.35;;;;;;;14.22;69.22;101293.81;5085512;28;20052;-64
2022/10/14 03:26:00;;;;;;;7.45;4.97;;;;;;;14.22;69.25;101291.94;5088005;28;20057;-64
2022/10/14 03:28:28;;;;;;;10.45;4.57;;;;;;;14.21;69.40;101295.69;5087734;28;20066;-64
2022/10/14 03:30:56;;;;;;;8.00;4.00;;;;;;;14.21;69.07;101298.41;5089682;28;20048;-64
2022/10/14 03:33:24;;;;;;;5.40;3.95;;;;;;;14.22;68.74;101291.94;5089112;28;20084;-64
2022/10/14 03:35:53;;;;;;;7.22;4.20;;;;;;;14.19;69.20;101287.00;5091504;28;20051;-64
2022/10/14 03:38:20;;;;;;;5.80;3.83;;;;;;;14.21;69.08;101281.38;5079564;28;20507;-64
2022/10/14 03:40:49;;;;;;;6.05;3.88;;;;;;;14.22;69.23;101283.00;5093517;28;20045;-64
2022/10/14 03:43:17;;;;;;;7.50;3.88;;;;;;;14.21;69.07;101276.78;5094889;28;20040;-64
2022/10/14 03:45:45;;;;;;;6.03;3.78;;;;;;;14.21;69.00;101276.78;5089923;28;20531;-64
2022/10/14 03:48:13;;;;;;;7.57;4.10;;;;;;;14.21;68.82;101276.78;5082866;28;20062;-64
2022/10/14 03:50:41;;;;;;;5.75;3.97;;;;;;;14.21;68.97;101262.44;5087515;28;20040;-65
2022/10/14 03:53:09;;;;;;;5.72;3.97;;;;;;;14.22;68.99;101262.19;5086851;28;20048;-64
2022/10/14 03:55:37;;;;;;;6.47;4.00;;;;;;;14.22;69.08;101267.63;5084916;28;20052;-64
2022/10/14 03:58:06;;;;;;;4.68;3.45;;;;;;;14.22;69.39;101267.63;5085162;28;20048;-64
2022/10/14 04:00:35;;;;;;;5.35;3.75;;;;;;;14.22;69.31;101267.63;5086069;28;20044;-64
2022/10/14 04:03:03;;;;;;;5.13;3.35;;;;;;;14.23;69.13;101268.44;5082122;28;20060;-65
2022/10/14 04:05:32;;;;;;;5.82;2.95;;;;;;;14.23;69.11;101269.25;5086389;28;20071;-64
2022/10/14 04:08:01;;;;;;;5.80;3.42;;;;;;;14.22;69.35;101258.69;5084626;28;20107;-64
2022/10/14 04:10:29;;;;;;;5.35;3.17;;;;;;;14.22;69.35;101258.69;5086277;28;20051;-65
2022/10/14 04:12:57;;;;;;;6.28;3.50;;;;;;;14.22;69.60;101256.78;5082085;28;20054;-64
2022/10/14 04:15:26;;;;;;;5.78;3.60;;;;;;;14.22;69.29;101261.38;5092000;28;20108;-65
2022/10/14 04:17:55;;;;;;;7.95;3.53;;;;;;;14.22;69.37;101259.50;5079004;28;20048;-64
2022/10/14 04:20:23;;;;;;;6.65;3.28;;;;;;;14.22;69.15;101259.50;5086337;28;20057;-64
2022/10/14 04:22:51;;;;;;;5.18;3.60;;;;;;;14.23;69.24;101260.31;5072291;28;20830;-64
2022/10/14 04:25:19;;;;;;;5.95;3.15;;;;;;;14.22;69.40;101255.97;5081130;28;20067;-64
2022/10/14 04:27:46;;;;;;;6.25;3.10;;;;;;;14.22;69.54;101250.56;5083576;28;20045;-64
2022/10/14 04:30:14;;;;;;;6.25;3.35;;;;;;;14.21;69.62;101255.16;5083953;28;20044;-64
2022/10/14 04:32:45;;;;;;;4.78;3.05;;;;;;;14.22;69.50;101245.97;5081085;28;20053;-64
2022/10/14 04:35:12;;;;;;;5.88;3.38;;;;;;;14.22;69.13;101250.56;5078709;28;20051;-64
2022/10/14 04:37:40;;;;;;;4.85;3.20;;;;;;;14.22;69.18;101245.97;5078814;28;20048;-64
2022/10/14 04:40:08;;;;;;;7.68;3.25;;;;;;;14.22;69.33;101243.28;5082516;28;20139;-64
2022/10/14 04:42:36;;;;;;;4.70;3.45;;;;;;;14.23;69.45;101244.09;5082808;28;20048;-64
2022/10/14 04:45:04;;;;;;;5.43;2.92;;;;;;;14.22;69.20;101248.69;5089219;28;20089;-64
2022/10/14 04:47:32;;;;;;;4.82;2.78;;;;;;;14.22;69.48;101242.47;5084030;28;20040;-63
2022/10/14 04:50:01;;;;;;;6.70;3.13;;;;;;;14.22;69.51;101239.75;5084722;28;20070;-63
2022/10/14 04:52:29;;;;;;;5.47;2.42;;;;;;;14.22;69.56;101231.66;5083285;28;20051;-64
2022/10/14 04:54:57;;;;;;;4.28;2.85;;;;;;;14.22;69.50;101232.47;5085336;28;20052;-63
2022/10/14 04:57:25;;;;;;;5.18;2.95;;;;;;;14.21;69.03;101230.81;5081226;28;20048;-64
2022/10/14 04:59:53;;;;;;;5.00;2.90;;;;;;;14.20;69.56;101231.88;5082198;28;20052;-63
2022/10/14 05:02:20;;;;;;;3.33;2.50;;;;;;;14.21;69.27;101224.59;5084536;28;20063;-63
2022/10/14 05:04:49;;;;;;;5.30;2.83;;;;;;;14.21;69.25;101230.00;5083961;28;20059;-64
2022/10/14 05:07:18;;;;;;;4.45;3.08;;;;;;;14.20;69.28;101229.19;5080351;28;20195;-64
2022/10/14 05:09:46;;;;;;;4.53;2.45;;;;;;;14.20;69.23;101220.25;5094531;28;20044;-65
2022/10/14 05:12:17;;;;;;;3.63;2.60;;;;;;;14.20;69.51;101226.47;5082153;28;20064;-64
2022/10/14 05:14:46;;;;;;;6.82;2.47;;;;;;;14.20;69.64;101212.97;5085723;28;20481;-64
2022/10/14 05:17:13;;;;;;;7.18;2.95;;;;;;;14.21;69.61;101211.06;5084673;28;20046;-64
2022/10/14 05:19:41;;;;;;;3.42;2.22;;;;;;;14.19;69.12;101203.19;5080448;28;20045;-63
2022/10/14 05:22:09;;;;;;;4.95;2.83;;;;;;;14.20;69.35;101209.44;5081431;28;20048;-63
2022/10/14 05:24:38;;;;;;;5.75;2.53;;;;;;;14.20;69.62;101206.72;5083867;28;20067;-63
2022/10/14 05:27:06;;;;;;;3.53;2.15;;;;;;;14.21;69.46;101208.38;5077310;28;20048;-61
2022/10/14 05:29:34;;;;;;;3.28;2.25;;;;;;;14.20;69.60;101210.25;5083191;28;20041;-61
2022/10/14 05:32:01;;;;;;;4.25;2.25;;;;;;;14.20;69.51;101194.03;5087655;28;20037;-63
2022/10/14 05:34:29;;;;;;;3.65;2.30;;;;;;;14.08;69.66;101168.91;5085306;28;20048;-65
2022/10/14 05:36:57;;;;;;;3.58;2.10;;;;;;;14.16;69.40;101173.13;5074914;28;20044;-63
2022/10/14 05:39:25;;;;;;;4.35;2.40;;;;;;;14.23;69.46;101180.03;5088537;28;20051;-65
2022/10/14 05:41:54;;;;;;;3.65;2.72;;;;;;;14.23;69.65;101190.03;5081313;28;20040;-62
2022/10/14 05:44:22;;;;;;;3.42;2.05;;;;;;;14.30;69.65;101180.75;5092365;28;20044;-63
2022/10/14 05:46:50;;;;;;;3.50;1.98;;;;;;;14.28;69.34;101174.75;5083830;28;20072;-65
2022/10/14 05:49:18;;;;;;;2.85;2.00;;;;;;;14.25;69.43;101172.53;4728927;28;10000532;-63
2022/10/14 05:51:45;;;;;;;4.28;2.72;;;;;;;14.26;69.46;101178.75;5077108;28;20139;-62
2022/10/14 05:54:13;;;;;;;3.33;2.30;;;;;;;14.17;69.75;101163.94;5079087;28;20044;-62
2022/10/14 05:56:41;;;;;;;3.72;2.13;;;;;;;14.25;69.42;101175.22;5081492;28;20055;-61
2022/10/14 05:59:10;;;;;;;4.95;2.85;;;;;;;14.26;69.71;101167.94;5076104;28;20052;-61
2022/10/14 06:01:39;;;;;;;3.08;2.40;;;;;;;14.25;69.82;101161.72;5073100;28;20041;-63
2022/10/14 06:04:07;;;;;;;3.55;2.40;;;;;;;14.26;69.54;101171.47;5069308;28;20063;-64
2022/10/14 06:06:35;;;;;;;3.38;2.13;;;;;;;14.25;69.50;101169.81;5079010;28;20060;-63
2022/10/14 06:09:03;;;;;;;3.67;2.35;;;;;;;14.25;69.59;101172.53;5080223;28;20058;-64
2022/10/14 06:11:37;;;;;;;3.67;2.08;;;;;;;14.25;69.82;101161.72;5076938;28;20045;-61
2022/10/14 06:14:05;;;;;;;3.53;2.42;;;;;;;14.26;69.61;101155.22;5076127;28;20048;-66
2022/10/14 06:16:34;;;;;;;3.75;2.58;;;;;;;14.26;71.54;101149.81;5070697;28;20070;-64
2022/10/14 06:19:02;;;;;;;5.70;2.33;;;;;;;14.27;71.08;101150.66;5080413;28;20052;-64
2022/10/14 06:21:30;;;;;;;3.25;2.10;;;;;;;14.26;70.53;101149.81;5077278;28;20043;-64
2022/10/14 06:23:58;;;;;;;3.40;2.28;;;;;;;14.25;70.27;101142.78;5078164;28;20068;-64
2022/10/14 06:26:26;;;;;;;5.93;2.40;;;;;;;14.25;70.41;101148.19;5077318;28;20499;-64
2022/10/14 06:28:54;;;;;;;5.72;2.30;;;;;;;14.26;70.71;101149.81;5088393;28;20060;-64
2022/10/14 06:31:22;;;;;;;3.38;1.92;;;;;;;14.26;70.48;101149.00;5076290;28;20139;-64
2022/10/14 06:33:51;;;;;;;5.82;2.22;;;;;;;14.26;70.49;101149.00;5079924;28;20049;-64
2022/10/14 06:36:19;;;;;;;3.05;2.17;;;;;;;14.26;70.40;101151.72;5077997;28;20055;-64
2022/10/14 06:38:46;;;;;;;3.22;2.17;;;;;;;14.26;70.14;101146.31;5078051;28;20067;-64
2022/10/14 06:41:14;;;;;;;3.38;2.15;;;;;;;14.26;69.88;101144.41;5078719;28;20059;-65
2022/10/14 06:43:42;;;;;;;4.18;2.20;;;;;;;14.27;70.38;101137.97;5075742;28;20052;-64
2022/10/14 06:46:10;;;;;;;4.20;2.42;;;;;;;14.27;70.55;101140.66;5081161;28;20695;-64
2022/10/14 06:48:38;;;;;;;6.18;2.60;;;;;;;14.28;70.65;101141.47;5064421;28;20045;-64
2022/10/14 06:51:07;;;;;;;2.75;2.00;;;;;;;14.27;70.40;101140.66;5077318;28;20104;-64
2022/10/14 06:53:35;;;;;;;3.13;2.22;;;;;;;14.26;70.64;101133.59;5079601;28;20045;-65
2022/10/14 06:56:05;;;;;;;2.80;1.95;;;;;;;14.26;70.04;101138.19;5081741;28;20044;-64
2022/10/14 06:58:33;;;;;;;4.90;2.00;;;;;;;14.26;70.24;101138.19;5082227;28;20466;-64
2022/10/14 07:01:02;;;;;;;3.45;2.20;;;;;;;14.27;70.08;101142.53;5083580;28;20040;-65
2022/10/14 07:03:31;;;;;;;3.25;2.30;;;;;;;14.27;70.62;101139.84;5081039;28;20402;-64
2022/10/14 07:05:58;;;;;;;3.20;2.05;;;;;;;14.26;70.24;101133.59;5081086;28;20490;-65
2022/10/14 07:08:27;;;;;;;3.83;2.13;;;;;;;14.27;70.25;101131.72;5086572;28;20044;-64
2022/10/14 07:10:55;;;;;;;4.78;2.53;;;;;;;14.27;70.37;101129.03;5079678;28;20059;-64
2022/10/14 07:13:23;;;;;;;3.63;2.20;;;;;;;14.26;70.49;101125.50;5078037;28;20041;-64
2022/10/14 07:15:51;;;;;;;3.13;2.25;;;;;;;14.28;70.72;101122.56;5078587;28;20052;-65
2022/10/14 07:18:19;;;;;;;4.20;2.47;;;;;;;14.28;70.53;101115.25;5082368;28;20052;-64
2022/10/14 07:20:47;;;;;;;5.18;2.10;;;;;;;14.28;70.75;101120.66;5077613;28;20059;-64
2022/10/14 07:23:15;;;;;;;4.63;1.92;;;;;;;14.28;70.81;101130.66;5080598;28;20439;-64
2022/10/14 07:25:44;;;;;;;3.83;2.38;;;;;;;14.28;70.63;101126.06;5080495;28;20055;-64
2022/10/14 07:28:13;;;;;;;3.33;2.47;;;;;;;14.28;70.68;101136.91;5078294;28;20330;-64
2022/10/14 07:30:41;;;;;;;3.53;2.17;;;;;;;14.29;70.91;101132.31;5081777;28;20055;-64
2022/10/14 07:33:09;;;;;;;3.33;2.13;;;;;;;14.27;70.83;101134.44;5085376;28;20043;-64
2022/10/14 07:35:37;;;;;;;4.32;1.92;;;;;;;14.28;70.67;101136.91;5082441;28;20508;-64
2022/10/14 07:38:05;;;;;;;3.55;2.17;;;;;;;14.30;70.60;101139.34;5083193;28;20118;-62
2022/10/14 07:40:33;;;;;;;4.78;2.80;;;;;;;14.29;70.94;101143.94;4734886;28;9999689;-65
2022/10/14 07:43:02;;;;;;;3.38;2.40;;;;;;;14.31;70.57;101138.31;5082171;28;20060;-64
2022/10/14 07:45:34;;;;;;;3.80;2.35;;;;;;;14.31;70.75;101130.19;5081243;28;20052;-65
2022/10/14 07:48:02;;;;;;;4.13;2.40;;;;;;;14.28;70.38;101133.38;5082100;28;20074;-64
2022/10/14 07:50:30;;;;;;;4.22;2.45;;;;;;;14.31;70.55;101120.19;5084964;28;20056;-65
2022/10/14 07:52:57;;;;;;;7.93;2.15;;;;;;;14.31;70.94;101122.91;5080986;28;20059;-64
2022/10/14 07:55:28;;;;;;;3.47;2.45;;;;;;;14.32;70.95;101132.66;5086973;28;20068;-65
2022/10/14 07:57:56;;;;;;;3.40;2.42;;;;;;;14.32;70.95;101129.13;5077553;28;20323;-64
2022/10/14 08:00:27;;;;;;;2.85;2.22;;;;;;;14.33;70.86;101130.78;5077567;28;20048;-64
2022/10/14 08:02:55;;;;;;;4.10;2.60;;;;;;;14.37;70.86;101118.41;5075292;28;20378;-64
2022/10/14 08:05:23;;;;;;;3.17;2.30;;;;;;;14.52;70.53;101107.09;5082090;28;20048;-64
2022/10/14 08:08:06;;;;;;;4.65;2.10;;;;;;;14.66;70.12;101111.16;5082121;28;20062;-64
2022/10/14 08:10:34;;;;;;;2.60;1.95;;;;;;;14.79;69.25;101110.84;5072968;28;20059;-65
2022/10/14 08:13:02;;;;;;;4.13;2.28;;;;;;;15.00;68.75;101113.94;5081434;28;20044;-64
2022/10/14 08:15:37;;;;;;;3.10;2.50;;;;;;;15.17;68.01;101114.75;5072683;28;20050;-64
2022/10/14 08:18:05;;;;;;;7.03;2.20;;;;;;;15.33;67.38;101119.34;5076094;28;20301;-65
2022/10/14 08:20:33;;;;;;;4.60;2.25;;;;;;;15.43;67.04;101118.69;5077580;28;20051;-64
2022/10/14 08:23:01;;;;;;;3.88;2.30;;;;;;;15.46;66.83;101104.66;5078533;28;20451;-67
2022/10/14 08:25:29;;;;;;;5.50;2.75;;;;;;;15.42;67.06;101098.09;5077944;28;20048;-64
2022/10/14 08:27:57;;;;;;;4.90;2.60;;;;;;;15.29;67.28;101086.53;5078599;28;20072;-64
2022/10/14 08:30:25;;;;;;;5.65;2.53;;;;;;;15.26;67.93;101097.03;5078934;28;20056;-64
2022/10/14 08:32:54;;;;;;;3.53;2.28;;;;;;;15.12;67.97;101085.72;5076301;28;20140;-63
2022/10/14 08:35:22;;;;;;;4.22;2.13;;;;;;;15.12;68.31;101099.25;5077869;28;20135;-64
2022/10/14 08:37:57;;;;;;;5.72;2.17;;;;;;;14.98;68.72;101089.81;5080137;28;20058;-64
2022/10/14 08:40:27;;;;;;;3.38;2.30;;;;;;;15.02;68.84;101106.38;5076229;28;20040;-64
2022/10/14 08:43:01;;;;;;;5.05;3.00;;;;;;;14.98;69.11;101108.75;5074677;28;20062;-64
2022/10/14 08:45:34;;;;;;;3.67;2.47;;;;;;;14.93;69.15;101104.06;5079578;28;20041;-64
2022/10/14 08:48:11;;;;;;;2.90;2.30;;;;;;;14.98;69.02;101096.03;5079015;28;20048;-64
2022/10/14 08:50:44;;;;;;;3.33;2.15;;;;;;;15.12;68.83;101098.44;5079164;28;20063;-65
2022/10/14 08:53:16;;;;;;;4.28;2.28;;;;;;;15.27;68.00;101098.69;5082187;28;20506;-65
2022/10/14 08:55:46;;;;;;;5.43;2.40;;;;;;;15.43;67.38;101095.13;5082376;28;20063;-65
2022/10/14 08:58:18;;;;;;;2.90;2.33;;;;;;;15.53;66.61;101076.34;5076398;28;20041;-64
2022/10/14 09:00:50;;;;;;;4.05;2.20;;;;;;;15.79;65.91;101090.22;5081133;28;20074;-64
2022/10/14 09:03:23;;;;;;;3.40;2.35;;;;;;;15.97;65.52;101084.50;5084919;28;20155;-64
2022/10/14 09:05:57;;;;;;;3.45;2.25;;;;;;;16.10;64.86;101086.84;5079517;28;20048;-64
2022/10/14 09:08:32;;;;;;;2.22;2.03;;;;;;;16.24;64.50;101090.81;5073870;28;20059;-65
2022/10/14 09:11:00;;;;;;;2.60;2.05;;;;;;;16.31;64.06;101085.19;5075738;28;20055;-63
2022/10/14 09:13:34;;;;;;;3.15;1.90;;;;;;;16.26;64.20;101083.25;5076429;28;20045;-64
2022/10/14 09:16:06;;;;;;;4.00;2.17;;;;;;;16.15;64.70;101088.81;5078269;28;20132;-65
2022/10/14 09:18:40;;;;;;;3.72;2.20;;;;;;;16.00;65.26;101083.19;5078840;28;20792;-64
2022/10/14 09:21:23;;;;;;;4.68;2.75;;;;;;;15.82;65.98;101079.72;5079459;28;20107;-64
2022/10/14 09:24:13;;;;;;;3.55;2.33;;;;;;;15.69;66.55;101080.06;5075355;28;20274;-64
2022/10/14 09:26:42;;;;;;;3.38;2.10;;;;;;;15.61;66.85;101080.50;5080806;28;20052;-64
2022/10/14 09:29:23;;;;;;;5.75;2.30;;;;;;;15.54;67.24;101079.84;5084299;28;20155;-63
2022/10/14 09:31:52;;;;;;;2.75;1.95;;;;;;;15.48;67.17;101081.69;5077747;28;20049;-64
2022/10/14 09:34:28;;;;;;;2.63;1.98;;;;;;;15.42;67.76;101073.72;5076382;28;20582;-64
2022/10/14 09:37:00;;;;;;;3.85;2.25;;;;;;;15.37;68.01;101077.16;5079529;28;20063;-64
2022/10/14 09:39:29;;;;;;;3.65;2.42;;;;;;;15.33;68.19;101076.03;5080378;28;20048;-64
2022/10/14 09:41:59;;;;;;;3.78;2.60;;;;;;;15.29;68.55;101066.75;5080328;28;20059;-64
2022/10/14 09:44:26;;;;;;;3.30;2.20;;;;;;;15.25;68.70;101076.44;5077160;28;20044;-64
2022/10/14 09:46:57;;;;;;;2.90;2.15;;;;;;;15.23;68.57;101073.16;5078462;28;20052;-64
2022/10/14 09:49:37;;;;;;;2.45;2.03;;;;;;;15.20;68.64;101066.34;5075328;28;20060;-64
2022/10/14 09:52:06;;;;;;;2.92;2.00;;;;;;;15.18;68.89;101068.50;5077919;28;20111;-65
2022/10/14 09:54:34;;;;;;;3.20;1.80;;;;;;;15.17;68.83;101063.31;5081046;28;20068;-68
2022/10/14 09:57:07;;;;;;;4.90;1.98;;;;;;;15.14;68.95;101064.63;5078223;28;20105;-64
2022/10/14 09:59:48;;;;;;;3.72;2.00;;;;;;;15.14;68.99;101069.22;5085985;28;20043;-63
2022/10/14 10:02:22;;;;;;;3.35;2.35;;;;;;;15.12;68.97;101068.66;5080399;28;20131;-62
2022/10/14 10:04:53;;;;;;;3.38;2.33;;;;;;;15.10;69.36;101049.94;5077162;28;20049;-66
2022/10/14 10:07:30;;;;;;;4.15;2.35;;;;;;;15.12;69.43;101055.13;5073727;28;20056;-66
2022/10/14 10:10:00;;;;;;;3.35;1.90;;;;;;;15.26;69.11;101061.84;5077748;28;20049;-65
2022/10/14 10:12:30;;;;;;;4.03;2.05;;;;;;;15.43;68.29;101053.69;5079741;28;20179;-66
2022/10/14 10:15:02;;;;;;;3.22;2.17;;;;;;;15.60;67.98;101055.31;5076656;28;20044;-66
2022/10/14 10:17:31;;;;;;;3.13;1.95;;;;;;;15.81;67.29;101056.41;5081385;28;20055;-66
2022/10/14 10:20:27;;;;;;;3.33;2.08;;;;;;;15.99;66.35;101054.44;5077182;28;20059;-67
2022/10/14 10:22:56;;;;;;;2.85;1.75;;;;;;;16.03;66.32;101042.03;5078461;28;20059;-66
2022/10/14 10:25:26;;;;;;;3.92;2.50;;;;;;;15.98;66.79;101036.53;5078270;28;20052;-66
2022/10/14 10:27:58;;;;;;;3.40;2.20;;;;;;;15.89;66.81;101042.41;5074047;28;20076;-66
2022/10/14 10:30:29;;;;;;;5.80;2.10;;;;;;;15.73;67.06;101028.91;5075566;28;20055;-66
2022/10/14 10:33:16;;;;;;;2.65;1.73;;;;;;;15.70;67.67;101040.25;5077916;28;20049;-65
2022/10/14 10:36:12;;;;;;;2.78;2.03;;;;;;;15.60;67.84;101032.84;5077689;28;20044;-67
2022/10/14 10:38:51;;;;;;;2.88;1.80;;;;;;;15.56;68.36;101028.97;5078046;28;20080;-65
2022/10/14 10:41:35;;;;;;;5.53;2.38;;;;;;;15.51;68.96;101027.00;5077999;28;20086;-66
2022/10/14 10:44:27;;;;;;;2.65;1.73;;;;;;;15.47;68.76;101030.47;5078327;28;20048;-63
2022/10/14 10:47:13;;;;;;;5.03;1.95;;;;;;;15.44;69.18;101028.25;5076026;28;20118;-65
2022/10/14 10:49:57;;;;;;;2.47;1.63;;;;;;;15.42;69.01;101027.69;5077033;28;20087;-67
2022/10/14 10:52:39;;;;;;;3.35;1.88;;;;;;;15.40;69.07;101018.97;5071186;28;20112;-62
2022/10/14 10:55:18;;;;;;;4.55;2.05;;;;;;;15.38;69.15;101027.34;5075999;28;20083;-63
2022/10/14 10:57:59;;;;;;;3.58;2.25;;;;;;;15.37;69.51;101017.59;5083902;28;20105;-64
2022/10/14 11:00:38;;;;;;;3.20;1.73;;;;;;;15.29;69.53;101010.72;5077842;28;20114;-64
2022/10/14 11:03:20;;;;;;;3.65;1.75;;;;;;;15.35;69.65;101014.31;5072727;28;20048;-64
2022/10/14 11:06:00;;;;;;;3.78;1.90;;;;;;;15.33;69.56;101015.63;5082336;28;20049;-65
2022/10/14 11:14:35;;;;;;;2.25;1.90;;;;;;;15.29;69.60;101007.19;5078765;28;20083;-64
2022/10/14 11:17:09;;;;;;;3.88;1.95;;;;;;;15.28;70.06;101003.66;5079369;28;20722;-64
2022/10/14 11:19:47;;;;;;;2.20;1.70;;;;;;;15.28;70.25;101000.13;5083532;28;20052;-64
2022/10/14 11:22:33;;;;;;;2.33;1.90;;;;;;;15.26;70.46;101005.78;5077886;28;20104;-64
2022/10/14 11:25:14;;;;;;;3.25;2.10;;;;;;;15.26;70.37;101004.97;5083768;28;20524;-67
2022/10/14 11:27:48;;;;;;;3.13;1.92;;;;;;;15.25;70.79;101006.88;5082774;28;20048;-67
2022/10/14 11:30:19;;;;;;;3.35;2.30;;;;;;;15.24;70.77;101004.41;5086697;28;20111;-66
2022/10/14 11:33:09;;;;;;;3.50;1.90;;;;;;;15.23;70.58;101000.88;5084790;28;20290;-66
2022/10/14 11:35:47;;;;;;;3.67;1.98;;;;;;;15.22;71.01;100983.00;5087121;28;20053;-67
2022/10/14 11:38:28;;;;;;;6.72;2.53;;;;;;;15.20;70.86;100989.72;5084018;28;20506;-67
2022/10/14 11:41:02;;;;;;;2.92;1.88;;;;;;;15.22;70.80;100976.75;5086235;28;20045;-67
2022/10/14 11:43:41;;;;;;;2.70;2.10;;;;;;;15.24;70.41;100977.31;5084746;28;20051;-66
2022/10/14 11:46:11;;;;;;;3.30;1.63;;;;;;;15.23;70.61;100971.09;5086008;28;20048;-66
2022/10/14 11:48:44;;;;;;;3.15;2.20;;;;;;;15.23;70.88;100962.97;5086766;28;20132;-66
2022/10/14 11:51:17;;;;;;;2.95;2.28;;;;;;;15.24;70.71;100964.59;5086044;28;20048;-66